Time;durP1;ratioP1;P1;durP2;ratioP2;P2;SDS_P1;SDS_P2;PMS_P1;PMS_P2;Temp;Humidity;BMP_temperature;BMP_pressure;BME280_temperature;BME280_humidity;BME280_pressure;Samples;Min_cycle;Max_cycle;Signal;HPM_P1;HPM_P2
2022/10/30 00:00:19;;;;;;;27.40;11.43;;;;;;;;;;5031301;28;20022;-65
2022/10/30 00:02:45;;;;;;;32.45;11.60;;;;;;;;;;5029412;28;20048;-64
2022/10/30 00:05:10;;;;;;;25.20;10.20;;;;;;;;;;5030194;28;20066;-64
2022/10/30 00:07:35;;;;;;;44.37;11.97;;;;;;;;;;5030493;28;20499;-66
2022/10/30 00:10:01;;;;;;;31.48;11.70;;;;;;;;;;5023955;28;20279;-64
2022/10/30 00:12:26;;;;;;;25.83;10.20;;;;;;;;;;5023424;28;20029;-63
2022/10/30 00:14:51;;;;;;;28.65;11.98;;;;;;;;;;5013155;28;20034;-65
2022/10/30 00:17:16;;;;;;;28.27;11.70;;;;;;;;;;5021399;28;20017;-65
2022/10/30 00:19:41;;;;;;;35.67;12.77;;;;;;;;;;5032060;28;20021;-64
2022/10/30 00:22:07;;;;;;;26.10;11.73;;;;;;;;;;5031427;28;20302;-65
2022/10/30 00:24:32;;;;;;;27.25;11.43;;;;;;;;;;5014525;28;20021;-64
2022/10/30 00:26:57;;;;;;;26.42;10.20;;;;;;;;;;5025127;28;20083;-65
2022/10/30 00:29:23;;;;;;;42.08;11.00;;;;;;;;;;5018379;28;20013;-66
2022/10/30 00:31:49;;;;;;;33.55;11.45;;;;;;;;;;5020272;28;20018;-64
2022/10/30 00:34:14;;;;;;;28.55;10.82;;;;;;;;;;5024365;28;20104;-66
2022/10/30 00:36:40;;;;;;;24.33;11.52;;;;;;;;;;5013314;28;20033;-65
2022/10/30 00:39:05;;;;;;;31.88;12.27;;;;;;;;;;5019477;28;20020;-65
2022/10/30 00:41:30;;;;;;;31.08;13.05;;;;;;;;;;5024783;28;20141;-65
2022/10/30 00:43:55;;;;;;;40.65;12.63;;;;;;;;;;5030149;28;20029;-65
2022/10/30 00:46:20;;;;;;;35.17;12.50;;;;;;;;;;5019229;28;20080;-65
2022/10/30 00:48:53;;;;;;;26.80;11.27;;;;;;;;;;5015237;28;20264;-65
2022/10/30 00:51:19;;;;;;;30.02;11.48;;;;;;;;;;5015349;28;20026;-64
2022/10/30 00:53:46;;;;;;;31.67;11.95;;;;;;;;;;5014046;28;20032;-65
2022/10/30 00:56:13;;;;;;;23.75;11.07;;;;;;;;;;5014605;28;20044;-64
2022/10/30 00:58:40;;;;;;;38.60;13.68;;;;;;;;;;5016800;28;20480;-64
2022/10/30 01:01:08;;;;;;;27.77;10.88;;;;;;;;;;5028334;28;20072;-65
2022/10/30 01:03:34;;;;;;;27.88;10.13;;;;;;;;;;5027525;28;20028;-65
2022/10/30 01:06:01;;;;;;;28.52;11.00;;;;;;;;;;5025851;28;20588;-64
2022/10/30 01:08:26;;;;;;;34.33;11.10;;;;;;;;;;5027766;28;20025;-64
2022/10/30 01:10:51;;;;;;;30.92;10.70;;;;;;;;;;5020308;28;20675;-66
2022/10/30 01:13:18;;;;;;;27.38;10.98;;;;;;;;;;5029645;28;20041;-64
2022/10/30 01:15:52;;;;;;;23.88;10.27;;;;;;;;;;5024477;28;20029;-64
2022/10/30 01:18:41;;;;;;;29.20;9.77;;;;;;;;;;5013071;28;20022;-65
2022/10/30 01:21:29;;;;;;;31.85;10.48;;;;;;;;;;5019632;28;20029;-65
2022/10/30 01:24:00;;;;;;;34.00;10.77;;;;;;;;;;5027817;28;20044;-65
2022/10/30 01:26:44;;;;;;;31.85;10.82;;;;;;;;;;5022349;28;20030;-67
2022/10/30 01:29:21;;;;;;;35.08;11.82;;;;;;;;;;5015758;28;20507;-64
2022/10/30 01:31:50;;;;;;;35.15;10.20;;;;;;;;;;5013418;28;20064;-65
2022/10/30 01:34:53;;;;;;;26.33;10.65;;;;;;;;;;5035194;28;20486;-64
2022/10/30 01:37:23;;;;;;;25.42;9.15;;;;;;;;;;4961530;28;20555;-63
2022/10/30 01:39:49;;;;;;;21.83;9.63;;;;;;;;;;4973137;28;20031;-62
2022/10/30 01:42:32;;;;;;;28.10;10.80;;;;;;;;;;4953161;29;20130;-63
2022/10/30 01:44:57;;;;;;;26.58;10.13;;;;;;;;;;4970876;28;20034;-65
2022/10/30 01:47:30;;;;;;;32.65;11.93;;;;;;;;;;4972899;28;20034;-65
2022/10/30 01:50:01;;;;;;;33.63;10.10;;;;;;;;;;4973756;28;20409;-64
2022/10/30 01:52:38;;;;;;;24.33;8.82;;;;;;;;;;4973237;28;20045;-65
2022/10/30 01:55:15;;;;;;;27.92;10.27;;;;;;;;;;4965054;28;20046;-64
2022/10/30 01:57:50;;;;;;;29.83;10.00;;;;;;;;;;4972687;28;20065;-65
2022/10/30 02:00:16;;;;;;;23.80;8.85;;;;;;;;;;4972956;28;20070;-65
2022/10/30 02:02:41;;;;;;;25.45;10.05;;;;;;;;;;4974015;28;20066;-65
2022/10/30 02:05:07;;;;;;;26.13;10.45;;;;;;;;;;4964873;28;20031;-62
2022/10/30 02:07:34;;;;;;;29.95;10.13;;;;;;;;;;4991536;28;20456;-65
2022/10/30 02:09:59;;;;;;;34.70;10.02;;;;;;;;;;5036341;28;20093;-64
2022/10/30 02:12:25;;;;;;;27.23;9.88;;;;;;;;;;5017414;28;20073;-64
2022/10/30 02:14:53;;;;;;;33.83;10.07;;;;;;;;;;5014972;28;20033;-65
2022/10/30 02:17:19;;;;;;;28.20;9.70;;;;;;;;;;5017354;28;20056;-65
2022/10/30 02:19:44;;;;;;;22.80;9.73;;;;;;;;;;5034006;28;20037;-63
2022/10/30 02:22:10;;;;;;;16.25;8.02;;;;;;;;;;5016568;28;20033;-65
2022/10/30 02:24:35;;;;;;;40.13;10.75;;;;;;;;;;5014130;28;20018;-65
2022/10/30 02:27:01;;;;;;;21.27;8.52;;;;;;;;;;5013926;28;20018;-65
2022/10/30 02:29:26;;;;;;;31.40;10.27;;;;;;;;;;5023576;28;20020;-64
2022/10/30 02:31:51;;;;;;;32.30;9.40;;;;;;;;;;5023409;28;20049;-66
2022/10/30 02:34:16;;;;;;;22.50;9.65;;;;;;;;;;5032910;28;20510;-66
2022/10/30 02:36:42;;;;;;;27.38;8.70;;;;;;;;;;5032200;28;20022;-67
2022/10/30 02:39:07;;;;;;;26.80;9.13;;;;;;;;;;5023327;28;20018;-65
2022/10/30 02:41:32;;;;;;;20.92;9.13;;;;;;;;;;5014182;28;20037;-65
2022/10/30 02:43:57;;;;;;;22.63;8.02;;;;;;;;;;5022999;28;20053;-66
2022/10/30 02:46:23;;;;;;;23.27;8.82;;;;;;;;;;5027022;28;20439;-64
2022/10/30 02:48:48;;;;;;;20.60;8.68;;;;;;;;;;5014003;28;20024;-66
2022/10/30 02:51:13;;;;;;;27.33;8.88;;;;;;;;;;5014760;28;20317;-66
2022/10/30 02:53:39;;;;;;;29.00;9.55;;;;;;;;;;5025645;28;20021;-66
2022/10/30 02:56:05;;;;;;;28.83;9.40;;;;;;;;;;5030277;28;20496;-64
2022/10/30 02:58:30;;;;;;;21.40;8.75;;;;;;;;;;5024308;28;20029;-66
2022/10/30 03:00:55;;;;;;;24.45;9.00;;;;;;;;;;5030043;28;20124;-67
2022/10/30 03:03:21;;;;;;;23.15;8.80;;;;;;;;;;5030501;28;20017;-65
2022/10/30 03:05:46;;;;;;;31.27;10.10;;;;;;;;;;5032813;28;20061;-66
2022/10/30 03:08:11;;;;;;;19.80;8.70;;;;;;;;;;5033411;28;20246;-64
2022/10/30 03:10:36;;;;;;;30.13;8.73;;;;;;;;;;5031714;28;20255;-66
2022/10/30 03:13:02;;;;;;;24.80;8.88;;;;;;;;;;5020289;28;20021;-63
2022/10/30 03:15:27;;;;;;;23.10;9.02;;;;;;;;;;5028261;28;20029;-66
2022/10/30 03:17:52;;;;;;;30.47;9.00;;;;;;;;;;5029299;28;20029;-63
2022/10/30 03:20:18;;;;;;;27.73;9.23;;;;;;;;;;5017983;28;20605;-66
2022/10/30 03:22:43;;;;;;;18.73;7.93;;;;;;;;;;5020871;28;20491;-63
2022/10/30 03:25:08;;;;;;;26.00;9.13;;;;;;;;;;5018120;28;20101;-67
2022/10/30 03:27:34;;;;;;;25.60;8.90;;;;;;;;;;5012393;28;20055;-65
2022/10/30 03:29:59;;;;;;;25.83;8.23;;;;;;;;;;5025947;28;20682;-65
2022/10/30 03:32:24;;;;;;;26.08;8.52;;;;;;;;;;5032221;28;20267;-64
2022/10/30 03:34:49;;;;;;;30.17;8.93;;;;;;;;;;5019451;28;20026;-66
2022/10/30 03:37:14;;;;;;;26.75;8.60;;;;;;;;;;5010630;28;20769;-65
2022/10/30 03:39:40;;;;;;;23.23;8.80;;;;;;;;;;5013810;28;20037;-66
2022/10/30 03:42:05;;;;;;;22.70;9.20;;;;;;;;;;5012824;28;20029;-65
2022/10/30 03:44:30;;;;;;;26.20;8.68;;;;;;;;;;5012593;28;20030;-65
2022/10/30 03:46:57;;;;;;;29.58;9.02;;;;;;;;;;5025551;28;20023;-65
2022/10/30 03:49:22;;;;;;;24.35;8.48;;;;;;;;;;5018879;28;20024;-64
2022/10/30 03:51:47;;;;;;;31.77;8.25;;;;;;;;;;5013226;28;20101;-65
2022/10/30 03:54:12;;;;;;;23.17;9.20;;;;;;;;;;5030040;28;20499;-65
2022/10/30 03:56:37;;;;;;;24.90;8.82;;;;;;;;;;5025372;28;20542;-65
2022/10/30 03:59:03;;;;;;;20.00;9.03;;;;;;;;;;5012814;28;20398;-65
2022/10/30 04:01:28;;;;;;;25.33;9.27;;;;;;;;;;5022853;28;20254;-66
2022/10/30 04:03:53;;;;;;;24.52;9.38;;;;;;;;;;5026563;28;20317;-65
2022/10/30 04:06:18;;;;;;;22.55;8.85;;;;;;;;;;5030401;28;20017;-63
2022/10/30 04:08:44;;;;;;;27.83;10.07;;;;;;;;;;5031408;28;20025;-66
2022/10/30 04:11:10;;;;;;;29.60;9.48;;;;;;;;;;5030927;28;20017;-65
2022/10/30 04:13:35;;;;;;;24.40;9.40;;;;;;;;;;5029470;28;20028;-66
2022/10/30 04:16:00;;;;;;;21.80;8.25;;;;;;;;;;5030479;28;20029;-63
2022/10/30 04:18:25;;;;;;;22.70;9.27;;;;;;;;;;5031036;28;20025;-65
2022/10/30 04:20:51;;;;;;;20.67;7.82;;;;;;;;;;5030944;28;20384;-65
2022/10/30 04:23:18;;;;;;;26.92;9.13;;;;;;;;;;5031246;28;20466;-64
2022/10/30 04:25:43;;;;;;;26.77;8.95;;;;;;;;;;5031326;28;20013;-67
2022/10/30 04:28:09;;;;;;;24.70;8.82;;;;;;;;;;5017024;28;20060;-67
2022/10/30 04:30:35;;;;;;;20.35;8.27;;;;;;;;;;5028543;28;20018;-67
2022/10/30 04:33:02;;;;;;;20.30;8.05;;;;;;;;;;5031153;28;20114;-65
2022/10/30 04:35:28;;;;;;;28.27;8.35;;;;;;;;;;5016997;28;20020;-66
2022/10/30 04:37:57;;;;;;;29.45;8.73;;;;;;;;;;5029759;28;20036;-65
2022/10/30 04:40:23;;;;;;;26.90;9.25;;;;;;;;;;5017913;28;20394;-66
2022/10/30 04:42:49;;;;;;;15.55;7.35;;;;;;;;;;5029882;28;20044;-64
2022/10/30 04:45:14;;;;;;;28.92;9.05;;;;;;;;;;5030848;28;20566;-68
2022/10/30 04:47:40;;;;;;;23.40;8.02;;;;;;;;;;5029821;28;20091;-66
2022/10/30 04:50:05;;;;;;;33.30;8.65;;;;;;;;;;5025002;28;20028;-65
2022/10/30 04:52:30;;;;;;;23.92;9.45;;;;;;;;;;5025931;28;20032;-65
2022/10/30 04:54:55;;;;;;;19.65;7.80;;;;;;;;;;5017664;28;20025;-66
2022/10/30 04:57:21;;;;;;;24.02;9.15;;;;;;;;;;5018608;28;20056;-68
2022/10/30 04:59:46;;;;;;;20.13;8.77;;;;;;;;;;5031721;28;20025;-66
2022/10/30 05:02:11;;;;;;;18.50;7.00;;;;;;;;;;5025521;28;20275;-66
2022/10/30 05:04:36;;;;;;;21.73;7.40;;;;;;;;;;5032236;28;20037;-66
2022/10/30 05:07:02;;;;;;;25.15;8.55;;;;;;;;;;5031516;28;20010;-66
2022/10/30 05:09:28;;;;;;;21.60;8.15;;;;;;;;;;5026257;28;20096;-64
2022/10/30 05:11:53;;;;;;;21.05;7.50;;;;;;;;;;5026227;28;20018;-67
2022/10/30 05:14:18;;;;;;;23.08;9.02;;;;;;;;;;5025055;28;20013;-66
2022/10/30 05:16:43;;;;;;;26.55;9.30;;;;;;;;;;5030946;28;20018;-66
2022/10/30 05:19:08;;;;;;;28.05;9.52;;;;;;;;;;5030656;28;20104;-66
2022/10/30 05:21:34;;;;;;;22.65;8.65;;;;;;;;;;5030675;28;20503;-65
2022/10/30 05:23:59;;;;;;;24.58;8.82;;;;;;;;;;5031642;28;20041;-64
2022/10/30 05:26:24;;;;;;;29.10;8.88;;;;;;;;;;5030104;28;20055;-67
2022/10/30 05:28:49;;;;;;;23.95;9.48;;;;;;;;;;5032044;28;20021;-66
2022/10/30 05:31:14;;;;;;;29.17;9.40;;;;;;;;;;5031169;28;20014;-66
2022/10/30 05:33:40;;;;;;;31.45;9.07;;;;;;;;;;5032236;28;20075;-66
2022/10/30 05:36:05;;;;;;;31.20;8.15;;;;;;;;;;5030406;28;20029;-66
2022/10/30 05:38:30;;;;;;;41.75;9.20;;;;;;;;;;5024786;28;20021;-65
2022/10/30 05:40:55;;;;;;;30.23;9.03;;;;;;;;;;5022697;28;20040;-65
2022/10/30 05:43:21;;;;;;;25.95;8.70;;;;;;;;;;5017402;28;20285;-67
2022/10/30 05:45:47;;;;;;;34.43;8.73;;;;;;;;;;5028948;28;20514;-66
2022/10/30 05:48:12;;;;;;;27.00;8.27;;;;;;;;;;5025836;28;20282;-65
2022/10/30 05:50:38;;;;;;;30.13;7.85;;;;;;;;;;5020224;28;20464;-65
2022/10/30 05:53:03;;;;;;;26.75;8.13;;;;;;;;;;5023588;28;20041;-66
2022/10/30 05:55:29;;;;;;;22.23;8.55;;;;;;;;;;5020569;28;20088;-66
2022/10/30 05:58:04;;;;;;;24.08;8.82;;;;;;;;;;5012290;28;20022;-65
2022/10/30 06:00:31;;;;;;;28.10;8.30;;;;;;;;;;5010481;28;20031;-67
2022/10/30 06:03:03;;;;;;;23.52;9.35;;;;;;;;;;5026893;28;20041;-64
2022/10/30 06:05:29;;;;;;;23.20;8.27;;;;;;;;;;5032139;28;20040;-66
2022/10/30 06:07:55;;;;;;;23.50;8.20;;;;;;;;;;5024751;28;20025;-67
2022/10/30 06:10:21;;;;;;;25.08;9.43;;;;;;;;;;5033910;28;20009;-66
2022/10/30 06:12:53;;;;;;;26.67;8.68;;;;;;;;;;5020132;28;20025;-66
2022/10/30 06:15:18;;;;;;;25.48;7.47;;;;;;;;;;5033773;28;20032;-66
2022/10/30 06:17:43;;;;;;;31.25;8.32;;;;;;;;;;5033923;28;20033;-67
2022/10/30 06:20:09;;;;;;;27.13;8.37;;;;;;;;;;5021266;28;20034;-66
2022/10/30 06:22:34;;;;;;;28.70;8.70;;;;;;;;;;5035974;28;20472;-66
2022/10/30 06:24:59;;;;;;;23.58;9.45;;;;;;;;;;5034384;28;20021;-65
2022/10/30 06:27:24;;;;;;;30.60;9.80;;;;;;;;;;5034036;28;20021;-66
2022/10/30 06:29:50;;;;;;;19.10;8.17;;;;;;;;;;5028072;28;20593;-65
2022/10/30 06:32:15;;;;;;;28.05;8.45;;;;;;;;;;5032281;28;20274;-66
2022/10/30 06:34:41;;;;;;;22.92;8.65;;;;;;;;;;5033282;28;20066;-64
2022/10/30 06:37:06;;;;;;;29.00;8.40;;;;;;;;;;5032226;28;20013;-66
2022/10/30 06:39:32;;;;;;;26.53;8.47;;;;;;;;;;5032613;28;20032;-66
2022/10/30 06:41:57;;;;;;;26.90;7.83;;;;;;;;;;5033431;28;20771;-66
2022/10/30 06:44:22;;;;;;;18.60;8.30;;;;;;;;;;5032384;28;20308;-66
2022/10/30 06:46:47;;;;;;;30.55;9.50;;;;;;;;;;5031180;28;20266;-65
2022/10/30 06:49:12;;;;;;;27.43;8.37;;;;;;;;;;5020693;28;20526;-67
2022/10/30 06:51:38;;;;;;;37.47;9.38;;;;;;;;;;5032688;28;20401;-64
2022/10/30 06:54:03;;;;;;;20.77;8.10;;;;;;;;;;5020697;28;20033;-65
2022/10/30 06:56:28;;;;;;;20.65;7.85;;;;;;;;;;5030692;28;20406;-66
2022/10/30 06:58:53;;;;;;;30.77;8.15;;;;;;;;;;5032114;28;20122;-66
2022/10/30 07:01:18;;;;;;;22.13;8.75;;;;;;;;;;5028887;28;20022;-66
2022/10/30 07:03:44;;;;;;;31.10;8.23;;;;;;;;;;5031483;28;20116;-65
2022/10/30 07:06:09;;;;;;;21.63;8.18;;;;;;;;;;5031761;28;20025;-65
2022/10/30 07:08:34;;;;;;;29.88;7.60;;;;;;;;;;5032966;28;20513;-65
2022/10/30 07:10:59;;;;;;;23.75;8.73;;;;;;;;;;5032438;28;20017;-65
2022/10/30 07:13:24;;;;;;;32.03;7.97;;;;;;;;;;5026514;28;20441;-65
2022/10/30 07:15:50;;;;;;;39.05;9.07;;;;;;;;;;5029003;28;20569;-64
2022/10/30 07:18:15;;;;;;;28.60;8.02;;;;;;;;;;5031062;28;20435;-66
2022/10/30 07:20:40;;;;;;;27.63;7.53;;;;;;;;;;5032561;28;20098;-66
2022/10/30 07:23:05;;;;;;;20.30;7.83;;;;;;;;;;5032727;28;20071;-64
2022/10/30 07:25:31;;;;;;;27.73;8.50;;;;;;;;;;5031323;28;20261;-65
2022/10/30 07:27:56;;;;;;;38.15;8.32;;;;;;;;;;5019608;28;20045;-66
2022/10/30 07:30:23;;;;;;;26.35;9.77;;;;;;;;;;5029773;28;20083;-64
2022/10/30 07:32:57;;;;;;;35.60;11.45;;;;;;;;;;5031698;28;20102;-63
2022/10/30 07:35:22;;;;;;;29.98;10.80;;;;;;;;;;5018972;28;20033;-66
2022/10/30 07:37:47;;;;;;;24.20;9.13;;;;;;;;;;5030390;28;20021;-64
2022/10/30 07:40:13;;;;;;;26.08;8.80;;;;;;;;;;5030872;28;20053;-63
2022/10/30 07:42:38;;;;;;;21.83;7.72;;;;;;;;;;5028691;28;20017;-66
2022/10/30 07:45:03;;;;;;;38.80;8.60;;;;;;;;;;5028856;28;20017;-64
2022/10/30 07:47:29;;;;;;;21.88;8.38;;;;;;;;;;5029881;28;20017;-65
2022/10/30 07:49:54;;;;;;;25.45;9.20;;;;;;;;;;5030640;28;20033;-66
2022/10/30 07:52:19;;;;;;;22.00;8.45;;;;;;;;;;5028435;28;20112;-64
2022/10/30 07:54:44;;;;;;;28.05;9.43;;;;;;;;;;5026652;28;20025;-67
2022/10/30 07:57:10;;;;;;;27.08;9.75;;;;;;;;;;5029519;28;20030;-67
2022/10/30 07:59:35;;;;;;;37.35;8.73;;;;;;;;;;5044972;28;20056;-64
2022/10/30 08:02:00;;;;;;;24.85;8.45;;;;;;;;;;5029598;28;20025;-65
2022/10/30 08:04:25;;;;;;;25.33;8.63;;;;;;;;;;5029111;28;20422;-64
2022/10/30 08:06:51;;;;;;;21.30;7.78;;;;;;;;;;5029942;28;20033;-65
2022/10/30 08:09:17;;;;;;;30.70;8.35;;;;;;;;;;5023924;28;20542;-66
2022/10/30 08:11:45;;;;;;;38.33;9.00;;;;;;;;;;5030438;28;20021;-66
2022/10/30 08:14:10;;;;;;;34.33;8.10;;;;;;;;;;5028009;28;20025;-67
2022/10/30 08:16:35;;;;;;;23.63;8.95;;;;;;;;;;5028675;28;20652;-65
2022/10/30 08:19:00;;;;;;;21.57;7.57;;;;;;;;;;5026606;28;20034;-66
2022/10/30 08:21:26;;;;;;;23.23;8.15;;;;;;;;;;5027922;28;20251;-67
2022/10/30 08:23:51;;;;;;;27.55;8.27;;;;;;;;;;5016691;28;20040;-66
2022/10/30 08:26:16;;;;;;;25.67;8.18;;;;;;;;;;5030237;28;20021;-65
2022/10/30 08:28:41;;;;;;;31.02;9.45;;;;;;;;;;5025437;28;20554;-67
2022/10/30 08:31:07;;;;;;;21.73;8.13;;;;;;;;;;5027431;28;20490;-67
2022/10/30 08:33:32;;;;;;;30.85;8.63;;;;;;;;;;5029139;28;20018;-65
2022/10/30 08:35:58;;;;;;;25.60;7.45;;;;;;;;;;5030091;28;20097;-67
2022/10/30 08:38:23;;;;;;;21.10;7.25;;;;;;;;;;5030425;28;20475;-66
2022/10/30 08:40:49;;;;;;;27.65;7.38;;;;;;;;;;5029690;28;20025;-64
2022/10/30 08:43:14;;;;;;;30.92;8.40;;;;;;;;;;5026983;28;20026;-64
2022/10/30 08:45:39;;;;;;;22.20;7.82;;;;;;;;;;5028519;28;20593;-66
2022/10/30 08:48:05;;;;;;;24.42;6.63;;;;;;;;;;5028124;28;20044;-67
2022/10/30 08:50:31;;;;;;;24.02;7.43;;;;;;;;;;5030148;28;20013;-66
2022/10/30 08:53:03;;;;;;;20.60;8.15;;;;;;;;;;5030132;28;20013;-66
2022/10/30 08:55:29;;;;;;;27.67;8.65;;;;;;;;;;5020828;28;20029;-66
2022/10/30 08:57:55;;;;;;;34.60;7.57;;;;;;;;;;5025029;28;20060;-64
2022/10/30 09:00:20;;;;;;;29.88;7.47;;;;;;;;;;5026838;28;20467;-64
2022/10/30 09:02:45;;;;;;;39.13;7.63;;;;;;;;;;5029462;28;20036;-69
2022/10/30 09:05:10;;;;;;;33.23;8.10;;;;;;;;;;5030917;28;20067;-67
2022/10/30 09:07:35;;;;;;;18.98;6.75;;;;;;;;;;5029672;28;20250;-66
2022/10/30 09:10:01;;;;;;;29.00;7.93;;;;;;;;;;5031038;28;20020;-65
2022/10/30 09:12:27;;;;;;;21.33;7.57;;;;;;;;;;5026513;28;20056;-67
2022/10/30 09:14:52;;;;;;;27.75;7.50;;;;;;;;;;5029480;28;20053;-68
2022/10/30 09:17:17;;;;;;;24.25;7.03;;;;;;;;;;5029627;28;20083;-65
2022/10/30 09:19:43;;;;;;;28.08;7.15;;;;;;;;;;5020360;28;20022;-65
2022/10/30 09:22:08;;;;;;;28.60;6.75;;;;;;;;;;5023217;28;20031;-66
2022/10/30 09:24:33;;;;;;;20.03;6.80;;;;;;;;;;5028421;28;20497;-67
2022/10/30 09:26:58;;;;;;;25.52;7.60;;;;;;;;;;5027757;28;20254;-65
2022/10/30 09:29:24;;;;;;;20.17;6.40;;;;;;;;;;5030388;28;20014;-65
2022/10/30 09:31:49;;;;;;;16.67;6.07;;;;;;;;;;5028241;28;20021;-67
2022/10/30 09:34:14;;;;;;;31.05;6.55;;;;;;;;;;5024005;28;20324;-64
2022/10/30 09:36:42;;;;;;;23.45;5.70;;;;;;;;;;5021140;28;20034;-68
2022/10/30 09:39:07;;;;;;;27.63;6.05;;;;;;;;;;5021940;28;20446;-64
2022/10/30 09:41:42;;;;;;;27.40;5.80;;;;;;;;;;5031599;28;20511;-64
2022/10/30 09:44:25;;;;;;;28.17;7.38;;;;;;;;;;5026824;28;20021;-66
2022/10/30 09:47:16;;;;;;;28.63;7.00;;;;;;;;;;5031325;28;20025;-65
2022/10/30 09:50:00;;;;;;;34.10;6.18;;;;;;;;;;5022663;28;20025;-65
2022/10/30 09:52:31;;;;;;;22.58;7.05;;;;;;;;;;5032714;28;20021;-66
2022/10/30 09:55:02;;;;;;;25.55;6.13;;;;;;;;;;5025925;28;20026;-64
2022/10/30 09:57:30;;;;;;;27.63;6.38;;;;;;;;;;5030354;28;20594;-63
2022/10/30 10:00:02;;;;;;;20.30;6.25;;;;;;;;;;5029808;28;20455;-65
2022/10/30 10:02:30;;;;;;;29.23;6.57;;;;;;;;;;5026962;28;20034;-66
2022/10/30 10:04:58;;;;;;;22.45;5.78;;;;;;;;;;5031877;28;20013;-66
2022/10/30 10:07:44;;;;;;;22.05;6.32;;;;;;;;;;5032150;28;20493;-67
2022/10/30 10:10:12;;;;;;;21.73;6.47;;;;;;;;;;5032142;28;20064;-66
2022/10/30 10:12:45;;;;;;;24.33;6.80;;;;;;;;;;5032066;28;20491;-67
2022/10/30 10:15:31;;;;;;;21.42;5.72;;;;;;;;;;5030156;28;20025;-64
2022/10/30 10:17:57;;;;;;;19.02;5.82;;;;;;;;;;5023012;28;20044;-68
2022/10/30 10:20:27;;;;;;;23.88;5.78;;;;;;;;;;5029878;28;20045;-67
2022/10/30 10:22:54;;;;;;;18.95;6.30;;;;;;;;;;5029934;28;20111;-66
2022/10/30 10:25:19;;;;;;;28.45;6.03;;;;;;;;;;5029067;28;20033;-68
2022/10/30 10:28:06;;;;;;;22.63;5.70;;;;;;;;;;5031071;28;20021;-70
2022/10/30 10:30:38;;;;;;;31.17;6.65;;;;;;;;;;5028480;28;20022;-65
2022/10/30 10:33:25;;;;;;;21.48;6.05;;;;;;;;;;5030202;28;20092;-66
2022/10/30 10:35:59;;;;;;;31.23;6.13;;;;;;;;;;5028493;28;20133;-66
2022/10/30 10:38:37;;;;;;;18.60;5.80;;;;;;;;;;5031167;28;20329;-68
2022/10/30 10:41:08;;;;;;;21.27;5.88;;;;;;;;;;5032272;28;20045;-65
2022/10/30 10:43:57;;;;;;;27.30;6.20;;;;;;;;;;5030400;28;20079;-68
2022/10/30 10:46:41;;;;;;;17.70;5.60;;;;;;;;;;5031847;28;20033;-65
2022/10/30 10:49:20;;;;;;;21.60;6.45;;;;;;;;;;5032406;28;20027;-67
2022/10/30 10:52:03;;;;;;;23.55;5.82;;;;;;;;;;5028960;28;20021;-66
2022/10/30 10:54:46;;;;;;;17.73;5.78;;;;;;;;;;5031517;28;20083;-68
2022/10/30 10:57:15;;;;;;;19.75;5.78;;;;;;;;;;5032216;28;20100;-66
2022/10/30 10:59:42;;;;;;;22.40;5.05;;;;;;;;;;5032036;28;20167;-67
2022/10/30 11:02:07;;;;;;;24.63;5.20;;;;;;;;;;5029868;28;20524;-67
2022/10/30 11:04:35;;;;;;;22.57;6.90;;;;;;;;;;5032425;28;20101;-69
2022/10/30 11:07:11;;;;;;;15.77;4.75;;;;;;;;;;5025129;28;20255;-70
2022/10/30 11:09:37;;;;;;;18.75;5.35;;;;;;;;;;5031244;28;20018;-64
2022/10/30 11:12:02;;;;;;;29.33;5.28;;;;;;;;;;5031390;28;20029;-65
2022/10/30 11:14:28;;;;;;;27.05;6.45;;;;;;;;;;5030775;28;20092;-66
2022/10/30 11:16:56;;;;;;;23.92;5.03;;;;;;;;;;5029344;28;20087;-67
2022/10/30 11:19:22;;;;;;;26.55;5.38;;;;;;;;;;5032705;28;20039;-66
2022/10/30 11:21:49;;;;;;;23.90;6.05;;;;;;;;;;5030252;28;20395;-66
2022/10/30 11:24:25;;;;;;;28.65;5.70;;;;;;;;;;5026415;28;20084;-65
2022/10/30 11:26:51;;;;;;;28.33;5.97;;;;;;;;;;5027394;28;20391;-65
2022/10/30 11:29:28;;;;;;;28.25;6.38;;;;;;;;;;5032052;28;20014;-67
2022/10/30 11:32:00;;;;;;;28.85;5.50;;;;;;;;;;5025921;28;20052;-66
2022/10/30 11:34:32;;;;;;;18.58;5.30;;;;;;;;;;5028059;28;20018;-65
2022/10/30 11:36:57;;;;;;;20.90;5.50;;;;;;;;;;5028822;28;20073;-66
2022/10/30 11:39:23;;;;;;;23.67;5.25;;;;;;;;;;5030015;28;20048;-66
2022/10/30 11:42:04;;;;;;;19.35;5.00;;;;;;;;;;5030983;28;20116;-67
2022/10/30 11:44:32;;;;;;;22.30;4.85;;;;;;;;;;5030822;28;20082;-66
2022/10/30 11:46:58;;;;;;;31.60;5.70;;;;;;;;;;5027860;28;20508;-68
2022/10/30 11:49:45;;;;;;;17.45;5.75;;;;;;;;;;5030554;28;20030;-63
2022/10/30 11:52:11;;;;;;;14.43;4.35;;;;;;;;;;5018355;28;20025;-68
2022/10/30 11:54:38;;;;;;;22.75;5.22;;;;;;;;;;5022902;28;20594;-67
2022/10/30 11:57:04;;;;;;;22.20;5.60;;;;;;;;;;5029693;28;20523;-67
2022/10/30 11:59:29;;;;;;;26.95;5.63;;;;;;;;;;5029846;28;20017;-65
2022/10/30 12:02:02;;;;;;;18.33;5.20;;;;;;;;;;5023041;28;20045;-64
2022/10/30 12:04:30;;;;;;;17.77;4.75;;;;;;;;;;5026944;28;20032;-65
2022/10/30 12:07:13;;;;;;;18.42;4.70;;;;;;;;;;5029511;28;20040;-63
2022/10/30 12:09:42;;;;;;;25.20;5.75;;;;;;;;;;5029056;28;20134;-65
2022/10/30 12:12:12;;;;;;;14.77;4.75;;;;;;;;;;5028526;28;20025;-65
2022/10/30 12:14:37;;;;;;;27.05;4.90;;;;;;;;;;5026964;28;20029;-64
2022/10/30 12:17:03;;;;;;;21.77;4.60;;;;;;;;;;5028858;28;20021;-66
2022/10/30 12:19:30;;;;;;;26.20;5.20;;;;;;;;;;5023976;28;20029;-66
2022/10/30 12:21:56;;;;;;;19.00;5.63;;;;;;;;;;5029761;28;20029;-67
2022/10/30 12:24:32;;;;;;;16.15;4.55;;;;;;;;;;5027122;28;20025;-66
2022/10/30 12:27:00;;;;;;;16.48;4.97;;;;;;;;;;5022411;28;20021;-66
2022/10/30 12:29:34;;;;;;;22.85;5.18;;;;;;;;;;5020633;28;20013;-67
2022/10/30 12:32:05;;;;;;;24.45;5.22;;;;;;;;;;5024448;28;20093;-68
2022/10/30 12:34:37;;;;;;;14.45;4.35;;;;;;;;;;5022368;28;20079;-68
2022/10/30 12:37:09;;;;;;;24.17;5.25;;;;;;;;;;5029960;28;20450;-67
2022/10/30 12:39:44;;;;;;;19.95;4.88;;;;;;;;;;5031150;28;20698;-65
2022/10/30 12:42:11;;;;;;;26.40;5.75;;;;;;;;;;5026519;28;20029;-68
2022/10/30 12:44:44;;;;;;;18.20;4.88;;;;;;;;;;5028706;28;20055;-67
2022/10/30 12:47:14;;;;;;;25.75;5.15;;;;;;;;;;5030751;28;20473;-67
2022/10/30 12:49:40;;;;;;;16.58;4.95;;;;;;;;;;5030746;28;20091;-68
2022/10/30 12:52:09;;;;;;;23.80;5.32;;;;;;;;;;5030958;28;20576;-67
2022/10/30 12:54:35;;;;;;;26.55;4.63;;;;;;;;;;5029883;28;20564;-66
2022/10/30 12:57:06;;;;;;;27.88;6.43;;;;;;;;;;5024050;28;20029;-66
2022/10/30 12:59:31;;;;;;;18.65;4.68;;;;;;;;;;5031092;28;20014;-67
2022/10/30 13:01:59;;;;;;;23.80;4.50;;;;;;;;;;5025511;28;20052;-66
2022/10/30 13:04:26;;;;;;;30.52;7.20;;;;;;;;;;5025102;28;20052;-67
2022/10/30 13:06:54;;;;;;;19.33;5.13;;;;;;;;;;5021757;28;20576;-65
2022/10/30 13:09:26;;;;;;;38.08;7.15;;;;;;;;;;5029741;28;20628;-66
2022/10/30 13:11:58;;;;;;;21.35;4.50;;;;;;;;;;5022848;28;20037;-67
2022/10/30 13:14:41;;;;;;;23.50;4.75;;;;;;;;;;5021543;28;20172;-66
2022/10/30 13:17:10;;;;;;;21.27;4.18;;;;;;;;;;5026380;28;20033;-64
2022/10/30 13:19:35;;;;;;;24.23;5.25;;;;;;;;;;5027211;28;20033;-68
2022/10/30 13:22:05;;;;;;;27.33;4.78;;;;;;;;;;5025850;28;20045;-66
2022/10/30 13:24:39;;;;;;;25.83;4.30;;;;;;;;;;5028223;28;20783;-68
2022/10/30 13:27:20;;;;;;;30.75;6.32;;;;;;;;;;5027726;28;20025;-68
2022/10/30 13:29:50;;;;;;;23.08;4.32;;;;;;;;;;5027751;28;20025;-66
2022/10/30 13:32:40;;;;;;;21.55;4.43;;;;;;;;;;5023369;28;20064;-67
2022/10/30 13:35:09;;;;;;;16.33;4.35;;;;;;;;;;5027182;28;20116;-67
2022/10/30 13:37:52;;;;;;;20.85;5.75;;;;;;;;;;5026547;28;20053;-65
2022/10/30 13:40:34;;;;;;;22.40;5.68;;;;;;;;;;5027719;28;20826;-67
2022/10/30 13:42:59;;;;;;;25.40;4.68;;;;;;;;;;5027122;28;20096;-66
2022/10/30 13:45:44;;;;;;;19.23;4.50;;;;;;;;;;5025394;28;20487;-65
2022/10/30 13:48:09;;;;;;;20.35;4.70;;;;;;;;;;5027219;28;20795;-66
2022/10/30 13:50:39;;;;;;;24.30;4.43;;;;;;;;;;5026903;28;20117;-67
2022/10/30 13:53:07;;;;;;;20.90;3.72;;;;;;;;;;5025910;28;20251;-66
2022/10/30 13:55:33;;;;;;;29.17;5.10;;;;;;;;;;5027268;28;20548;-66
2022/10/30 13:58:09;;;;;;;19.00;4.72;;;;;;;;;;5027218;28;20033;-66
2022/10/30 14:00:54;;;;;;;39.40;5.43;;;;;;;;;;5026677;28;20099;-67
2022/10/30 14:03:22;;;;;;;19.02;3.95;;;;;;;;;;5027041;28;20040;-68
2022/10/30 14:05:54;;;;;;;23.50;5.13;;;;;;;;;;5025129;28;20022;-67
2022/10/30 14:08:19;;;;;;;22.42;5.05;;;;;;;;;;5026417;28;20555;-68
2022/10/30 14:10:48;;;;;;;21.90;4.72;;;;;;;;;;5026047;28;20670;-65
2022/10/30 14:13:22;;;;;;;26.15;4.38;;;;;;;;;;5027698;28;20040;-66
2022/10/30 14:15:51;;;;;;;21.48;3.75;;;;;;;;;;5025957;28;20075;-67
2022/10/30 14:18:22;;;;;;;25.70;5.05;;;;;;;;;;5027036;28;20029;-68
2022/10/30 14:20:48;;;;;;;19.73;4.03;;;;;;;;;;5025800;28;20037;-66
2022/10/30 14:23:13;;;;;;;22.48;4.32;;;;;;;;;;5027409;28;20034;-69
2022/10/30 14:25:39;;;;;;;32.23;5.30;;;;;;;;;;5028521;28;20018;-67
2022/10/30 14:28:04;;;;;;;23.30;4.10;;;;;;;;;;5028139;28;20036;-66
2022/10/30 14:30:32;;;;;;;16.50;4.45;;;;;;;;;;5024959;28;20487;-66
2022/10/30 14:32:57;;;;;;;29.40;5.13;;;;;;;;;;5025222;28;20029;-69